createdAt,value
2022-11-11T00:00:10.119Z,0
2022-11-11T00:01:10.257Z,0
2022-11-11T00:02:10.418Z,0
2022-11-11T00:03:10.595Z,0
2022-11-11T00:04:10.886Z,0
2022-11-11T00:05:11.026Z,0
2022-11-11T00:06:11.168Z,0
2022-11-11T00:07:11.338Z,0
2022-11-11T00:08:11.685Z,0
2022-11-11T00:09:11.828Z,0
2022-11-11T00:10:12.645Z,0
2022-11-11T00:11:12.796Z,0
2022-11-11T00:12:12.942Z,0
2022-11-11T00:13:13.082Z,0
2022-11-11T00:14:13.302Z,0
2022-11-11T00:15:13.441Z,0
2022-11-11T00:16:13.586Z,0
2022-11-11T00:17:13.716Z,0
2022-11-11T00:18:13.897Z,0
2022-11-11T00:19:14.103Z,0
2022-11-11T00:20:14.352Z,0
2022-11-11T00:21:14.592Z,0
2022-11-11T00:22:14.784Z,0
2022-11-11T00:23:15.035Z,0
2022-11-11T00:24:15.278Z,0
2022-11-11T00:25:15.535Z,0
2022-11-11T00:26:38.331Z,0
2022-11-11T00:27:41.165Z,0
2022-11-11T00:28:41.462Z,0
2022-11-11T00:29:41.713Z,0
2022-11-11T00:30:41.934Z,0
2022-11-11T00:31:42.181Z,0
2022-11-11T00:32:42.444Z,0
2022-11-11T00:33:42.694Z,0
2022-11-11T00:34:42.928Z,0
2022-11-11T00:35:43.170Z,0
2022-11-11T00:36:44.735Z,0
2022-11-11T00:37:45.160Z,0
2022-11-11T00:38:45.448Z,0
2022-11-11T00:39:45.727Z,0
2022-11-11T00:40:45.934Z,0
2022-11-11T00:41:46.164Z,0
2022-11-11T00:42:46.369Z,0
2022-11-11T00:43:46.630Z,0
2022-11-11T00:44:46.871Z,0
2022-11-11T00:45:47.079Z,0
2022-11-11T00:46:47.273Z,0
2022-11-11T00:47:47.520Z,0
2022-11-11T00:48:47.748Z,0
2022-11-11T00:49:47.984Z,0
2022-11-11T00:50:48.291Z,0
2022-11-11T00:51:48.652Z,0
2022-11-11T00:52:48.906Z,0
2022-11-11T00:53:49.169Z,0
2022-11-11T00:54:49.411Z,0
2022-11-11T00:55:49.636Z,0
2022-11-11T00:56:49.892Z,0
2022-11-11T00:57:50.130Z,0
2022-11-11T00:58:50.392Z,0
2022-11-11T00:59:50.611Z,0
2022-11-11T01:00:50.829Z,0
2022-11-11T01:01:51.120Z,0
2022-11-11T01:02:51.797Z,0
2022-11-11T01:03:52.298Z,0
2022-11-11T01:04:52.548Z,0
2022-11-11T01:05:52.821Z,0
2022-11-11T01:06:53.292Z,0
2022-11-11T01:07:53.861Z,0
2022-11-11T01:08:54.368Z,0
2022-11-11T01:09:54.637Z,0
2022-11-11T01:10:54.919Z,0
2022-11-11T01:11:55.205Z,0
2022-11-11T01:12:55.453Z,0
2022-11-11T01:13:55.682Z,0
2022-11-11T01:14:55.942Z,0
2022-11-11T01:15:56.239Z,0
2022-11-11T01:16:56.469Z,0
2022-11-11T01:17:56.761Z,0
2022-11-11T01:18:57.112Z,0
2022-11-11T01:19:57.434Z,0
2022-11-11T01:20:57.694Z,0
2022-11-11T01:21:58.606Z,0
2022-11-11T01:22:58.990Z,0
2022-11-11T01:23:59.383Z,0
2022-11-11T01:24:59.637Z,0
2022-11-11T01:25:59.960Z,0
2022-11-11T01:27:00.442Z,0
2022-11-11T01:28:00.759Z,0
2022-11-11T01:29:01.034Z,0
2022-11-11T01:30:01.332Z,0
2022-11-11T01:31:01.703Z,0
2022-11-11T01:32:02.037Z,0
2022-11-11T01:33:02.193Z,0
2022-11-11T01:34:02.692Z,0
2022-11-11T01:35:03.047Z,0
2022-11-11T01:36:03.434Z,0
2022-11-11T01:37:03.858Z,0
2022-11-11T01:38:04.132Z,0
2022-11-11T01:39:04.407Z,0
2022-11-11T01:40:04.660Z,0
2022-11-11T01:41:04.994Z,0
2022-11-11T01:42:05.275Z,0
2022-11-11T01:43:05.637Z,0
2022-11-11T01:44:06.078Z,0
2022-11-11T01:45:06.402Z,0
2022-11-11T01:46:06.740Z,0
2022-11-11T01:47:07.049Z,0
2022-11-11T01:48:25.624Z,0
2022-11-11T01:49:34.458Z,0
2022-11-11T01:50:34.871Z,0
2022-11-11T01:51:35.128Z,0
2022-11-11T01:52:35.531Z,0
2022-11-11T01:53:35.740Z,0
2022-11-11T01:54:35.881Z,0
2022-11-11T01:55:36.461Z,0
2022-11-11T01:56:36.813Z,0
2022-11-11T01:57:37.104Z,0
2022-11-11T01:58:37.624Z,0
2022-11-11T01:59:38.036Z,0
2022-11-11T02:00:38.379Z,0
2022-11-11T02:01:38.729Z,0
2022-11-11T02:02:39.363Z,0
2022-11-11T02:03:40.240Z,0
2022-11-11T02:04:40.768Z,0
2022-11-11T02:05:41.244Z,0
2022-11-11T02:06:41.730Z,0
2022-11-11T02:07:42.437Z,0
2022-11-11T02:08:43.102Z,0
2022-11-11T02:09:43.313Z,0
2022-11-11T02:10:43.773Z,0
2022-11-11T02:11:44.166Z,0
2022-11-11T02:12:44.325Z,0
2022-11-11T02:13:44.745Z,0
2022-11-11T02:14:45.277Z,0
2022-11-11T02:15:45.643Z,0
2022-11-11T02:16:46.020Z,0
2022-11-11T02:17:46.329Z,0
2022-11-11T02:18:46.639Z,0
2022-11-11T02:19:46.992Z,0
2022-11-11T02:20:47.441Z,0
2022-11-11T02:21:47.773Z,0
2022-11-11T02:22:48.178Z,0
2022-11-11T02:23:48.366Z,0
2022-11-11T02:24:48.755Z,0
2022-11-11T02:25:48.983Z,0
2022-11-11T02:26:52.003Z,0
2022-11-11T02:27:58.994Z,0
2022-11-11T02:28:59.407Z,0
2022-11-11T02:29:59.710Z,0
2022-11-11T02:31:00.225Z,0
2022-11-11T02:32:00.804Z,0
2022-11-11T02:33:01.349Z,0
2022-11-11T02:34:01.803Z,0
2022-11-11T02:35:02.293Z,0
2022-11-11T02:36:02.662Z,0
2022-11-11T02:37:03.031Z,0
2022-11-11T02:38:03.342Z,0
2022-11-11T02:39:03.709Z,0
2022-11-11T02:40:05.506Z,0
2022-11-11T02:41:06.612Z,0
2022-11-11T02:42:07.039Z,0
2022-11-11T02:43:07.530Z,0
2022-11-11T02:44:08.309Z,0
2022-11-11T02:45:08.826Z,0
2022-11-11T02:46:09.283Z,0
2022-11-11T02:47:09.754Z,0
2022-11-11T02:48:10.262Z,0
2022-11-11T02:49:10.807Z,0
2022-11-11T02:50:11.283Z,0
2022-11-11T02:51:11.752Z,0
2022-11-11T02:52:12.339Z,0
2022-11-11T02:53:12.499Z,0
2022-11-11T02:54:12.975Z,0
2022-11-11T02:55:13.511Z,0
2022-11-11T02:56:13.933Z,0
2022-11-11T02:57:14.413Z,0
2022-11-11T02:58:14.943Z,0
2022-11-11T02:59:15.422Z,0
2022-11-11T03:00:15.890Z,0
2022-11-11T03:01:16.467Z,0
2022-11-11T03:02:17.176Z,0
2022-11-11T03:03:17.984Z,0
2022-11-11T03:04:18.827Z,0
2022-11-11T03:05:19.382Z,0
2022-11-11T03:06:19.915Z,0
2022-11-11T03:07:20.113Z,0
2022-11-11T03:08:20.827Z,0
2022-11-11T03:09:21.769Z,0
2022-11-11T03:10:22.396Z,0
2022-11-11T03:11:22.800Z,0
2022-11-11T03:12:23.253Z,0
2022-11-11T03:13:23.990Z,0
2022-11-11T03:14:25.395Z,0
2022-11-11T03:15:25.851Z,0
2022-11-11T03:16:26.243Z,0
2022-11-11T03:17:26.669Z,0
2022-11-11T03:18:27.073Z,0
2022-11-11T03:19:27.546Z,0
2022-11-11T03:20:27.963Z,0
2022-11-11T03:22:40.383Z,0
2022-11-11T03:23:55.778Z,0
2022-11-11T03:24:55.920Z,0
2022-11-11T03:25:58.317Z,0
2022-11-11T03:26:58.721Z,0
2022-11-11T03:27:58.852Z,0
2022-11-11T03:28:58.984Z,0
2022-11-11T03:29:59.125Z,0
2022-11-11T03:31:03.124Z,0
2022-11-11T03:32:04.785Z,0
2022-11-11T03:33:04.929Z,0
2022-11-11T03:34:05.076Z,0
2022-11-11T03:35:05.219Z,0
2022-11-11T03:36:05.355Z,0
2022-11-11T03:37:05.493Z,0
2022-11-11T03:38:05.633Z,0
2022-11-11T03:39:05.765Z,0
2022-11-11T03:40:05.900Z,0
2022-11-11T03:41:06.048Z,0
2022-11-11T03:42:06.183Z,0
2022-11-11T03:43:06.315Z,0
2022-11-11T03:44:06.452Z,0
2022-11-11T03:45:06.592Z,0
2022-11-11T03:46:06.724Z,0
2022-11-11T03:47:06.862Z,0
2022-11-11T03:48:06.997Z,0
2022-11-11T03:49:07.132Z,0
2022-11-11T03:50:07.286Z,0
2022-11-11T03:51:07.478Z,0
2022-11-11T03:52:07.791Z,0
2022-11-11T03:53:07.931Z,0
2022-11-11T03:54:08.103Z,0
2022-11-11T03:55:08.240Z,0
2022-11-11T03:56:08.370Z,0
2022-11-11T03:57:08.510Z,0
2022-11-11T03:58:08.644Z,0
2022-11-11T03:59:08.797Z,0
2022-11-11T04:00:14.037Z,0
2022-11-11T04:01:15.344Z,0
2022-11-11T04:02:15.487Z,0
2022-11-11T04:03:15.623Z,0
2022-11-11T04:04:15.754Z,0
2022-11-11T04:05:15.885Z,0
2022-11-11T04:06:16.024Z,0
2022-11-11T04:07:16.217Z,0
2022-11-11T04:08:16.504Z,0
2022-11-11T04:09:16.645Z,0
2022-11-11T04:10:16.783Z,0
2022-11-11T04:11:16.923Z,0
2022-11-11T04:12:17.061Z,0
2022-11-11T04:13:17.195Z,0
2022-11-11T04:14:17.330Z,0
2022-11-11T04:15:17.458Z,0
2022-11-11T04:16:17.591Z,0
2022-11-11T04:17:17.735Z,0
2022-11-11T04:18:17.874Z,0
2022-11-11T04:19:18.013Z,0
2022-11-11T04:20:18.151Z,0
2022-11-11T04:21:18.293Z,0
2022-11-11T04:22:18.430Z,0
2022-11-11T04:23:18.564Z,0
2022-11-11T04:24:18.697Z,0
2022-11-11T04:25:18.830Z,0
2022-11-11T04:26:18.967Z,0
2022-11-11T04:27:19.107Z,0
2022-11-11T04:28:19.261Z,0
2022-11-11T04:29:19.401Z,0
2022-11-11T04:30:19.532Z,0
2022-11-11T04:31:19.673Z,0
2022-11-11T04:32:19.805Z,0
2022-11-11T04:33:19.935Z,0
2022-11-11T04:34:20.066Z,0
2022-11-11T04:35:20.201Z,0
2022-11-11T04:36:20.336Z,0
2022-11-11T04:37:20.476Z,0
2022-11-11T04:38:20.610Z,0
2022-11-11T04:39:20.754Z,0
2022-11-11T04:40:20.893Z,0
2022-11-11T04:41:21.032Z,0
2022-11-11T04:42:21.171Z,0
2022-11-11T04:43:21.589Z,0
2022-11-11T04:44:22.747Z,0
2022-11-11T04:45:22.883Z,0
2022-11-11T04:46:23.026Z,0
2022-11-11T04:47:23.168Z,0
2022-11-11T04:48:23.308Z,0
2022-11-11T04:49:23.442Z,0
2022-11-11T04:50:23.577Z,0
2022-11-11T04:51:23.717Z,0
2022-11-11T04:52:23.852Z,0
2022-11-11T04:53:24.278Z,0
2022-11-11T04:54:25.679Z,0
2022-11-11T04:55:25.813Z,0
2022-11-11T04:56:25.953Z,0
2022-11-11T04:57:26.091Z,0
2022-11-11T04:58:26.224Z,0
2022-11-11T04:59:26.373Z,0
2022-11-11T05:00:30.502Z,0
2022-11-11T05:01:32.166Z,0
2022-11-11T05:02:32.453Z,0
2022-11-11T05:03:32.587Z,0
2022-11-11T05:04:32.725Z,0
2022-11-11T05:05:32.861Z,0
2022-11-11T05:06:33.065Z,0
2022-11-11T05:07:33.353Z,0
2022-11-11T05:08:33.489Z,0
2022-11-11T05:09:33.622Z,0
2022-11-11T05:10:33.757Z,0
2022-11-11T05:11:33.896Z,0
2022-11-11T05:12:34.038Z,0
2022-11-11T05:13:34.184Z,0
2022-11-11T05:14:34.330Z,0
2022-11-11T05:15:34.464Z,0
2022-11-11T05:16:34.613Z,0
2022-11-11T05:17:34.756Z,0
2022-11-11T05:18:34.893Z,0
2022-11-11T05:19:35.029Z,0
2022-11-11T05:20:38.839Z,0
2022-11-11T05:21:39.474Z,0
2022-11-11T05:22:39.614Z,0
2022-11-11T05:23:39.754Z,0
2022-11-11T05:24:39.904Z,0
2022-11-11T05:25:40.034Z,0
2022-11-11T05:26:40.174Z,0
2022-11-11T05:27:40.314Z,0
2022-11-11T05:28:40.442Z,0
2022-11-11T05:29:40.579Z,0
2022-11-11T05:30:40.719Z,0
2022-11-11T05:31:40.862Z,0
2022-11-11T05:32:40.995Z,0
2022-11-11T05:33:41.136Z,0
2022-11-11T05:34:41.271Z,0
2022-11-11T05:35:41.408Z,0
2022-11-11T05:36:41.554Z,0
2022-11-11T05:37:41.688Z,0
2022-11-11T05:38:41.820Z,0
2022-11-11T05:39:41.963Z,0
2022-11-11T05:40:42.103Z,0
2022-11-11T05:41:42.237Z,0
2022-11-11T05:42:47.203Z,0
2022-11-11T05:43:54.487Z,0
2022-11-11T05:44:54.629Z,0
2022-11-11T05:45:54.778Z,0
2022-11-11T05:46:54.915Z,0
2022-11-11T05:47:55.054Z,0
2022-11-11T05:48:55.189Z,0
2022-11-11T05:49:55.325Z,0
2022-11-11T05:50:55.457Z,0
2022-11-11T05:51:55.596Z,0
2022-11-11T05:52:55.732Z,0
2022-11-11T05:53:55.863Z,0
2022-11-11T05:54:56.007Z,0
2022-11-11T05:55:56.142Z,0
2022-11-11T05:56:56.289Z,0
2022-11-11T05:57:56.432Z,0
2022-11-11T05:58:56.565Z,0
2022-11-11T05:59:56.696Z,0
2022-11-11T06:00:56.835Z,0
2022-11-11T06:01:57.119Z,0
2022-11-11T06:02:57.539Z,0
2022-11-11T06:03:57.686Z,1
2022-11-11T06:04:57.821Z,2
2022-11-11T06:05:57.953Z,3
2022-11-11T06:06:58.133Z,4
2022-11-11T06:07:58.371Z,4
2022-11-11T06:08:58.505Z,5
2022-11-11T06:09:58.646Z,6
2022-11-11T06:10:58.781Z,7
2022-11-11T06:11:58.917Z,9
2022-11-11T06:12:59.073Z,11
2022-11-11T06:13:59.214Z,15
2022-11-11T06:14:59.357Z,17
2022-11-11T06:15:59.495Z,19
2022-11-11T06:16:59.637Z,21
2022-11-11T06:17:59.772Z,21
2022-11-11T06:18:59.928Z,21
2022-11-11T06:20:00.318Z,24
2022-11-11T06:21:00.464Z,24
2022-11-11T06:22:00.658Z,27
2022-11-11T06:23:01.309Z,27
2022-11-11T06:24:01.460Z,30
2022-11-11T06:25:01.599Z,33
2022-11-11T06:26:01.729Z,33
2022-11-11T06:27:01.866Z,37
2022-11-11T06:28:01.999Z,41
2022-11-11T06:29:02.134Z,46
2022-11-11T06:30:28.270Z,46
2022-11-11T06:31:51.877Z,57
2022-11-11T06:32:52.016Z,57
2022-11-11T06:33:52.147Z,64
2022-11-11T06:34:52.288Z,71
2022-11-11T06:35:52.426Z,71
2022-11-11T06:36:52.567Z,71
2022-11-11T06:37:52.719Z,80
2022-11-11T06:38:52.849Z,80
2022-11-11T06:39:52.996Z,88.96
2022-11-11T06:40:53.132Z,88.96
2022-11-11T06:41:53.276Z,88.96
2022-11-11T06:42:53.413Z,100
2022-11-11T06:43:53.547Z,110
2022-11-11T06:44:53.684Z,110
2022-11-11T06:45:53.840Z,130
2022-11-11T06:46:53.977Z,130
2022-11-11T06:47:54.229Z,130
2022-11-11T06:48:54.377Z,150
2022-11-11T06:49:54.524Z,150
2022-11-11T06:50:54.674Z,169.92
2022-11-11T06:51:54.812Z,169.92
2022-11-11T06:52:54.959Z,189.92
2022-11-11T06:53:55.102Z,189.92
2022-11-11T06:54:55.236Z,209.92
2022-11-11T06:55:55.386Z,209.92
2022-11-11T06:56:55.526Z,240
2022-11-11T06:57:55.661Z,240
2022-11-11T06:58:55.799Z,269.92
2022-11-11T06:59:55.936Z,269.92
2022-11-11T07:00:56.150Z,300
2022-11-11T07:01:56.459Z,300
2022-11-11T07:02:56.601Z,300
2022-11-11T07:03:56.751Z,300
2022-11-11T07:04:56.905Z,300
2022-11-11T07:05:59.216Z,329.92
2022-11-11T07:06:59.792Z,329.92
2022-11-11T07:08:00.103Z,329.92
2022-11-11T07:09:00.250Z,329.92
2022-11-11T07:10:00.392Z,369.92
2022-11-11T07:11:05.166Z,369.92
2022-11-11T07:12:18.742Z,389.76
2022-11-11T07:13:18.877Z,409.92
2022-11-11T07:14:19.015Z,409.92
2022-11-11T07:15:19.150Z,409.92
2022-11-11T07:16:19.291Z,409.92
2022-11-11T07:17:19.426Z,409.92
2022-11-11T07:18:19.557Z,409.92
2022-11-11T07:19:19.824Z,409.92
2022-11-11T07:20:20.419Z,409.92
2022-11-11T07:21:20.552Z,409.92
2022-11-11T07:22:20.696Z,409.92
2022-11-11T07:23:20.843Z,440
2022-11-11T07:24:20.985Z,440
2022-11-11T07:25:21.117Z,489.92
2022-11-11T07:26:21.252Z,539.84
2022-11-11T07:27:21.395Z,539.84
2022-11-11T07:28:21.596Z,539.84
2022-11-11T07:29:22.124Z,600
2022-11-11T07:30:22.256Z,600
2022-11-11T07:31:22.394Z,659.84
2022-11-11T07:32:22.528Z,739.84
2022-11-11T07:33:24.652Z,829.44
2022-11-11T07:34:25.196Z,829.44
2022-11-11T07:35:25.334Z,919.68
2022-11-11T07:36:25.467Z,1019.52
2022-11-11T07:37:25.602Z,1139.84
2022-11-11T07:38:26.019Z,1139.84
2022-11-11T07:39:27.510Z,1259.52
2022-11-11T07:40:27.646Z,1259.52
2022-11-11T07:41:27.786Z,1259.52
2022-11-11T07:42:31.252Z,1259.52
2022-11-11T07:43:32.205Z,1259.52
2022-11-11T07:44:32.347Z,1259.52
2022-11-11T07:45:32.489Z,1259.52
2022-11-11T07:46:32.629Z,1259.52
2022-11-11T07:47:32.768Z,1259.52
2022-11-11T07:48:32.898Z,1259.52
2022-11-11T07:49:33.037Z,1280
2022-11-11T07:50:33.175Z,1280
2022-11-11T07:51:33.316Z,1280
2022-11-11T07:52:33.461Z,1280
2022-11-11T07:53:33.602Z,1419.52
2022-11-11T07:54:33.747Z,1419.52
2022-11-11T07:55:33.908Z,1419.52
2022-11-11T07:56:34.042Z,1579.52
2022-11-11T07:57:34.176Z,1579.52
2022-11-11T07:58:34.320Z,1579.52
2022-11-11T07:59:34.452Z,1579.52
2022-11-11T08:00:34.612Z,1579.52
2022-11-11T08:01:34.986Z,1739.52
2022-11-11T08:02:35.343Z,1739.52
2022-11-11T08:03:35.477Z,1739.52
2022-11-11T08:04:35.621Z,1739.52
2022-11-11T08:05:35.755Z,1739.52
2022-11-11T08:06:35.965Z,1739.52
2022-11-11T08:07:36.372Z,1739.52
2022-11-11T08:08:36.511Z,1739.52
2022-11-11T08:09:36.644Z,1920
2022-11-11T08:10:36.788Z,1920
2022-11-11T08:11:36.927Z,1920
2022-11-11T08:12:37.064Z,1920
2022-11-11T08:13:37.206Z,1920
2022-11-11T08:14:37.344Z,1920
2022-11-11T08:15:37.483Z,1920
2022-11-11T08:16:37.624Z,1920
2022-11-11T08:17:37.768Z,1920
2022-11-11T08:18:37.903Z,1920
2022-11-11T08:19:38.034Z,2099.2
2022-11-11T08:20:41.989Z,2099.2
2022-11-11T08:21:53.600Z,2319.36
2022-11-11T08:23:14.977Z,2319.36
2022-11-11T08:26:03.632Z,2659.84
2022-11-11T08:27:03.781Z,2659.84
2022-11-11T08:28:03.918Z,2659.84
2022-11-11T08:29:04.066Z,2659.84
2022-11-11T08:30:04.210Z,2659.84
2022-11-11T08:31:04.710Z,2659.84
2022-11-11T08:32:04.899Z,2659.84
2022-11-11T08:33:31.633Z,2659.84
2022-11-11T08:34:44.724Z,2659.84
2022-11-11T08:35:44.870Z,2659.84
2022-11-11T08:36:45.004Z,2659.84
2022-11-11T08:37:45.163Z,2659.84
2022-11-11T08:38:45.315Z,2659.84
2022-11-11T08:39:45.478Z,2659.84
2022-11-11T08:40:45.636Z,2659.84
2022-11-11T08:41:45.783Z,2659.84
2022-11-11T08:42:45.925Z,2659.84
2022-11-11T08:43:46.064Z,2839.04
2022-11-11T08:44:46.199Z,2839.04
2022-11-11T08:45:46.337Z,2839.04
2022-11-11T08:46:46.513Z,2839.04
2022-11-11T08:47:46.745Z,2839.04
2022-11-11T08:48:47.050Z,2839.04
2022-11-11T08:49:47.194Z,3138.56
2022-11-11T08:50:47.325Z,3138.56
2022-11-11T08:51:47.464Z,3138.56
2022-11-11T08:52:47.601Z,3458.56
2022-11-11T08:53:47.743Z,3458.56
2022-11-11T08:54:47.887Z,3458.56
2022-11-11T08:55:48.034Z,3458.56
2022-11-11T08:56:48.190Z,3458.56
2022-11-11T08:57:48.330Z,3458.56
2022-11-11T08:58:48.467Z,3458.56
2022-11-11T08:59:48.605Z,3458.56
2022-11-11T09:00:48.755Z,3458.56
2022-11-11T09:01:49.047Z,3458.56
2022-11-11T09:02:49.181Z,3658.24
2022-11-11T09:03:49.319Z,3658.24
2022-11-11T09:04:52.996Z,3658.24
2022-11-11T09:05:56.010Z,3678.72
2022-11-11T09:06:56.261Z,3678.72
2022-11-11T09:07:56.564Z,3678.72
2022-11-11T09:08:56.699Z,3678.72
2022-11-11T09:09:56.830Z,3678.72
2022-11-11T09:10:57.045Z,3678.72
2022-11-11T09:11:57.479Z,3678.72
2022-11-11T09:12:57.628Z,3737.6
2022-11-11T09:13:57.765Z,3737.6
2022-11-11T09:14:57.909Z,3737.6
2022-11-11T09:15:58.041Z,3737.6
2022-11-11T09:16:58.183Z,3737.6
2022-11-11T09:17:58.323Z,3737.6
2022-11-11T09:18:58.609Z,3737.6
2022-11-11T09:19:58.744Z,3737.6
2022-11-11T09:20:58.885Z,3737.6
2022-11-11T09:21:59.018Z,3737.6
2022-11-11T09:22:59.149Z,3637.76
2022-11-11T09:23:59.291Z,3637.76
2022-11-11T09:24:59.428Z,3637.76
2022-11-11T09:25:59.566Z,3637.76
2022-11-11T09:26:59.711Z,3637.76
2022-11-11T09:27:59.846Z,3637.76
2022-11-11T09:28:59.985Z,3637.76
2022-11-11T09:30:00.152Z,3637.76
2022-11-11T09:31:11.188Z,3637.76
2022-11-11T09:32:46.123Z,3438.08
2022-11-11T09:33:46.266Z,3438.08
2022-11-11T09:34:46.425Z,3438.08
2022-11-11T09:35:46.808Z,3438.08
2022-11-11T09:36:46.947Z,3438.08
2022-11-11T09:37:47.090Z,3438.08
2022-11-11T09:38:47.253Z,3438.08
2022-11-11T09:39:47.393Z,3438.08
2022-11-11T09:40:47.535Z,3438.08
2022-11-11T09:41:50.668Z,3438.08
2022-11-11T09:43:01.120Z,3399.68
2022-11-11T09:44:01.255Z,3399.68
2022-11-11T09:45:01.410Z,3399.68
2022-11-11T09:46:01.545Z,3737.6
2022-11-11T09:47:01.683Z,4119.04
2022-11-11T09:48:05.109Z,4119.04
2022-11-11T09:49:10.710Z,4098.56
2022-11-11T09:50:10.861Z,4098.56
2022-11-11T09:51:11.003Z,4098.56
2022-11-11T09:52:11.152Z,4538.88
2022-11-11T09:53:11.291Z,4538.88
2022-11-11T09:54:11.439Z,4538.88
2022-11-11T09:55:11.575Z,4538.88
2022-11-11T09:56:29.401Z,4538.88
2022-11-11T09:57:32.349Z,4779.52
2022-11-11T09:58:32.481Z,4779.52
2022-11-11T09:59:32.631Z,4779.52
2022-11-11T10:00:32.766Z,4779.52
2022-11-11T10:01:32.946Z,4999.68
2022-11-11T10:02:33.273Z,4999.68
2022-11-11T10:03:33.411Z,4999.68
2022-11-11T10:04:33.546Z,4999.68
2022-11-11T10:05:33.683Z,4999.68
2022-11-11T10:06:33.894Z,4999.68
2022-11-11T10:07:34.255Z,4999.68
2022-11-11T10:08:34.389Z,4999.68
2022-11-11T10:09:34.528Z,4999.68
2022-11-11T10:10:34.665Z,4999.68
2022-11-11T10:11:34.805Z,5258.24
2022-11-11T10:12:37.985Z,5258.24
2022-11-11T10:13:43.993Z,5437.44
2022-11-11T10:14:44.129Z,5437.44
2022-11-11T10:15:44.265Z,5836.8
2022-11-11T10:16:44.405Z,5836.8
2022-11-11T10:17:44.541Z,5836.8
2022-11-11T10:18:44.675Z,5836.8
2022-11-11T10:19:44.814Z,5836.8
2022-11-11T10:20:44.959Z,5836.8
2022-11-11T10:22:06.139Z,5836.8
2022-11-11T10:23:14.008Z,6215.68
2022-11-11T10:24:14.144Z,6215.68
2022-11-11T10:25:14.284Z,6435.84
2022-11-11T10:26:14.429Z,6435.84
2022-11-11T10:27:14.564Z,6435.84
2022-11-11T10:28:14.700Z,6435.84
2022-11-11T10:29:14.837Z,7096.32
2022-11-11T10:30:14.978Z,7096.32
2022-11-11T10:31:15.112Z,7096.32
2022-11-11T10:32:15.245Z,7096.32
2022-11-11T10:33:15.381Z,7096.32
2022-11-11T10:34:15.530Z,7096.32
2022-11-11T10:35:15.668Z,7838.72
2022-11-11T10:36:15.815Z,7838.72
2022-11-11T10:37:15.961Z,7838.72
2022-11-11T10:38:16.098Z,7838.72
2022-11-11T10:39:16.252Z,8775.68
2022-11-11T10:40:16.386Z,8775.68
2022-11-11T10:41:16.529Z,8775.68
2022-11-11T10:42:16.679Z,9676.8
2022-11-11T10:43:16.821Z,9676.8
2022-11-11T10:44:16.969Z,9676.8
2022-11-11T10:45:17.109Z,9676.8
2022-11-11T10:46:17.251Z,9676.8
2022-11-11T10:47:17.405Z,9676.8
2022-11-11T10:48:17.547Z,9676.8
2022-11-11T10:49:17.702Z,9676.8
2022-11-11T10:50:17.996Z,9676.8
2022-11-11T10:51:18.133Z,10792.96
2022-11-11T10:52:18.272Z,10792.96
2022-11-11T10:53:18.409Z,10792.96
2022-11-11T10:54:18.646Z,10792.96
2022-11-11T10:55:18.787Z,10792.96
2022-11-11T10:56:18.959Z,10792.96
2022-11-11T10:57:19.097Z,10792.96
2022-11-11T10:58:19.239Z,12195.84
2022-11-11T10:59:19.381Z,13598.72
2022-11-11T11:00:19.512Z,15196.16
2022-11-11T11:01:19.666Z,15196.16
2022-11-11T11:02:19.923Z,13393.92
2022-11-11T11:03:20.064Z,13393.92
2022-11-11T11:04:20.201Z,13393.92
2022-11-11T11:05:20.339Z,11991.04
2022-11-11T11:06:20.480Z,11991.04
2022-11-11T11:07:20.658Z,11991.04
2022-11-11T11:08:21.018Z,11991.04
2022-11-11T11:09:21.587Z,11991.04
2022-11-11T11:10:21.745Z,13199.36
2022-11-11T11:11:21.883Z,13199.36
2022-11-11T11:12:22.016Z,13199.36
2022-11-11T11:13:22.150Z,14592
2022-11-11T11:14:22.282Z,14592
2022-11-11T11:15:22.419Z,12994.56
2022-11-11T11:16:22.561Z,12994.56
2022-11-11T11:17:22.699Z,11591.68
2022-11-11T11:18:23.178Z,11591.68
2022-11-11T11:19:24.268Z,11591.68
2022-11-11T11:20:24.410Z,10398.72
2022-11-11T11:21:24.547Z,10398.72
2022-11-11T11:22:24.682Z,10398.72
2022-11-11T11:23:24.816Z,10398.72
2022-11-11T11:24:24.953Z,11591.68
2022-11-11T11:25:25.087Z,11591.68
2022-11-11T11:26:25.220Z,11591.68
2022-11-11T11:27:25.359Z,11591.68
2022-11-11T11:28:25.966Z,11591.68
2022-11-11T11:29:26.966Z,11591.68
2022-11-11T11:30:27.115Z,11591.68
2022-11-11T11:31:27.263Z,11591.68
2022-11-11T11:32:27.411Z,11591.68
2022-11-11T11:33:27.551Z,11591.68
2022-11-11T11:34:27.681Z,11991.04
2022-11-11T11:35:27.817Z,11991.04
2022-11-11T11:36:27.953Z,11991.04
2022-11-11T11:37:28.098Z,13199.36
2022-11-11T11:38:28.233Z,13199.36
2022-11-11T11:39:28.374Z,13199.36
2022-11-11T11:40:28.512Z,11796.48
2022-11-11T11:41:28.654Z,11796.48
2022-11-11T11:42:28.788Z,11796.48
2022-11-11T11:43:28.921Z,11796.48
2022-11-11T11:44:29.065Z,11796.48
2022-11-11T11:45:29.214Z,11796.48
2022-11-11T11:46:29.410Z,11796.48
2022-11-11T11:47:29.549Z,11796.48
2022-11-11T11:48:31.660Z,11796.48
2022-11-11T11:49:32.626Z,11796.48
2022-11-11T11:50:32.785Z,10997.76
2022-11-11T11:51:32.923Z,10997.76
2022-11-11T11:52:33.071Z,10997.76
2022-11-11T11:53:33.206Z,9896.96
2022-11-11T11:54:33.336Z,9896.96
2022-11-11T11:55:33.477Z,9896.96
2022-11-11T11:56:33.622Z,9896.96
2022-11-11T11:57:33.761Z,9896.96
2022-11-11T11:58:33.896Z,9896.96
2022-11-11T11:59:34.035Z,10997.76
2022-11-11T12:00:34.179Z,10997.76
2022-11-11T12:01:34.314Z,10997.76
2022-11-11T12:02:34.499Z,10997.76
2022-11-11T12:03:34.765Z,10997.76
2022-11-11T12:04:37.266Z,12195.84
2022-11-11T12:05:44.325Z,12195.84
2022-11-11T12:06:44.512Z,12195.84
2022-11-11T12:07:44.833Z,12195.84
2022-11-11T12:08:44.974Z,13598.72
2022-11-11T12:09:45.106Z,15196.16
2022-11-11T12:10:45.239Z,16998.4
2022-11-11T12:11:45.379Z,16998.4
2022-11-11T12:12:45.509Z,18790.4
2022-11-11T12:13:45.647Z,20797.44
2022-11-11T12:14:45.788Z,20797.44
2022-11-11T12:15:45.929Z,20797.44
2022-11-11T12:16:46.068Z,20797.44
2022-11-11T12:17:46.216Z,20797.44
2022-11-11T12:18:46.355Z,20797.44
2022-11-11T12:19:46.485Z,20797.44
2022-11-11T12:20:46.622Z,20797.44
2022-11-11T12:21:46.773Z,20797.44
2022-11-11T12:22:46.918Z,20797.44
2022-11-11T12:23:47.063Z,18790.4
2022-11-11T12:24:47.207Z,16599.04
2022-11-11T12:25:47.350Z,16599.04
2022-11-11T12:26:47.488Z,16599.04
2022-11-11T12:27:47.622Z,16599.04
2022-11-11T12:28:47.751Z,16599.04
2022-11-11T12:29:47.881Z,16599.04
2022-11-11T12:30:48.014Z,14796.8
2022-11-11T12:31:48.149Z,14796.8
2022-11-11T12:32:49.023Z,14796.8
2022-11-11T12:33:49.386Z,14796.8
2022-11-11T12:34:49.533Z,13199.36
2022-11-11T12:35:49.674Z,13199.36
2022-11-11T12:36:49.818Z,13199.36
2022-11-11T12:37:49.951Z,11796.48
2022-11-11T12:38:50.086Z,11796.48
2022-11-11T12:39:50.221Z,10598.4
2022-11-11T12:40:50.421Z,10598.4
2022-11-11T12:41:50.716Z,10598.4
2022-11-11T12:42:50.849Z,10598.4
2022-11-11T12:43:50.985Z,10598.4
2022-11-11T12:44:51.122Z,10598.4
2022-11-11T12:45:51.256Z,9497.6
2022-11-11T12:46:51.406Z,9497.6
2022-11-11T12:47:51.541Z,9497.6
2022-11-11T12:48:51.680Z,8519.68
2022-11-11T12:49:51.815Z,8519.68
2022-11-11T12:50:51.953Z,8519.68
2022-11-11T12:51:52.089Z,8519.68
2022-11-11T12:52:52.219Z,8519.68
2022-11-11T12:53:52.360Z,8519.68
2022-11-11T12:54:52.511Z,8519.68
2022-11-11T12:55:52.650Z,7659.52
2022-11-11T12:56:52.788Z,7659.52
2022-11-11T12:57:52.943Z,7659.52
2022-11-11T12:58:53.075Z,6876.16
2022-11-11T12:59:53.212Z,6876.16
2022-11-11T13:00:53.399Z,6876.16
2022-11-11T13:01:53.681Z,6876.16
2022-11-11T13:02:53.815Z,6876.16
2022-11-11T13:03:53.982Z,6876.16
2022-11-11T13:04:54.129Z,6876.16
2022-11-11T13:05:54.265Z,6876.16
2022-11-11T13:06:54.452Z,6876.16
2022-11-11T13:07:54.726Z,6876.16
2022-11-11T13:08:54.860Z,7357.44
2022-11-11T13:09:54.999Z,7357.44
2022-11-11T13:10:55.369Z,7357.44
2022-11-11T13:11:59.505Z,8135.68
2022-11-11T13:12:59.638Z,10199.04
2022-11-11T13:13:59.782Z,11397.12
2022-11-11T13:14:59.917Z,12800
2022-11-11T13:16:00.058Z,14397.44
2022-11-11T13:17:00.202Z,14397.44
2022-11-11T13:18:00.335Z,14397.44
2022-11-11T13:19:00.466Z,14397.44
2022-11-11T13:20:00.609Z,14397.44
2022-11-11T13:21:00.741Z,14397.44
2022-11-11T13:22:00.882Z,12800
2022-11-11T13:23:01.011Z,12800
2022-11-11T13:24:01.161Z,11397.12
2022-11-11T13:25:04.014Z,11397.12
2022-11-11T13:26:05.523Z,10792.96
2022-11-11T13:27:05.679Z,10792.96
2022-11-11T13:28:05.815Z,10792.96
2022-11-11T13:29:05.950Z,10199.04
2022-11-11T13:30:06.090Z,10199.04
2022-11-11T13:31:06.230Z,10199.04
2022-11-11T13:32:06.367Z,10199.04